sensor_id;sensor_type;location;lat;lon;timestamp;P1;durP1;ratioP1;P2;durP2;ratioP2
33104;SDS011;19476;51.448;6.674;2023-04-03T00:01:36;8.00;;;4.10;;
33104;SDS011;19476;51.448;6.674;2023-04-03T00:04:03;8.15;;;4.85;;
33104;SDS011;19476;51.448;6.674;2023-04-03T00:06:30;8.10;;;4.53;;
33104;SDS011;19476;51.448;6.674;2023-04-03T00:08:56;9.82;;;4.60;;
33104;SDS011;19476;51.448;6.674;2023-04-03T00:11:22;10.70;;;6.25;;
33104;SDS011;19476;51.448;6.674;2023-04-03T00:13:48;14.45;;;7.20;;
33104;SDS011;19476;51.448;6.674;2023-04-03T00:16:15;12.45;;;7.40;;
33104;SDS011;19476;51.448;6.674;2023-04-03T00:18:41;13.00;;;7.00;;
33104;SDS011;19476;51.448;6.674;2023-04-03T00:21:07;13.45;;;6.75;;
33104;SDS011;19476;51.448;6.674;2023-04-03T00:23:36;9.65;;;5.82;;
33104;SDS011;19476;51.448;6.674;2023-04-03T00:26:02;10.15;;;5.82;;
33104;SDS011;19476;51.448;6.674;2023-04-03T00:28:28;11.27;;;5.82;;
33104;SDS011;19476;51.448;6.674;2023-04-03T00:30:54;11.50;;;4.90;;
33104;SDS011;19476;51.448;6.674;2023-04-03T00:33:20;8.73;;;5.15;;
33104;SDS011;19476;51.448;6.674;2023-04-03T00:35:47;8.15;;;4.68;;
33104;SDS011;19476;51.448;6.674;2023-04-03T00:38:13;8.80;;;4.80;;
33104;SDS011;19476;51.448;6.674;2023-04-03T00:40:41;7.90;;;4.28;;
33104;SDS011;19476;51.448;6.674;2023-04-03T00:43:13;9.40;;;4.22;;
33104;SDS011;19476;51.448;6.674;2023-04-03T00:45:52;7.35;;;4.07;;
33104;SDS011;19476;51.448;6.674;2023-04-03T00:48:21;8.95;;;4.70;;
33104;SDS011;19476;51.448;6.674;2023-04-03T00:51:18;9.00;;;4.55;;
33104;SDS011;19476;51.448;6.674;2023-04-03T00:53:49;7.85;;;3.80;;
33104;SDS011;19476;51.448;6.674;2023-04-03T00:56:19;8.60;;;3.72;;
33104;SDS011;19476;51.448;6.674;2023-04-03T00:58:51;8.07;;;4.60;;
33104;SDS011;19476;51.448;6.674;2023-04-03T01:01:27;7.25;;;3.60;;
33104;SDS011;19476;51.448;6.674;2023-04-03T01:03:54;6.15;;;3.22;;
33104;SDS011;19476;51.448;6.674;2023-04-03T01:06:21;6.30;;;3.00;;
33104;SDS011;19476;51.448;6.674;2023-04-03T01:08:51;6.43;;;3.47;;
33104;SDS011;19476;51.448;6.674;2023-04-03T01:11:18;5.85;;;3.22;;
33104;SDS011;19476;51.448;6.674;2023-04-03T01:13:43;6.38;;;2.95;;
33104;SDS011;19476;51.448;6.674;2023-04-03T01:16:09;6.63;;;3.55;;
33104;SDS011;19476;51.448;6.674;2023-04-03T01:18:36;5.53;;;3.35;;
33104;SDS011;19476;51.448;6.674;2023-04-03T01:26:27;5.22;;;2.63;;
33104;SDS011;19476;51.448;6.674;2023-04-03T01:28:53;5.95;;;2.85;;
33104;SDS011;19476;51.448;6.674;2023-04-03T01:31:22;5.45;;;2.60;;
33104;SDS011;19476;51.448;6.674;2023-04-03T01:34:15;5.10;;;2.80;;
33104;SDS011;19476;51.448;6.674;2023-04-03T01:36:41;4.80;;;2.30;;
33104;SDS011;19476;51.448;6.674;2023-04-03T01:39:06;5.82;;;3.05;;
33104;SDS011;19476;51.448;6.674;2023-04-03T01:41:32;4.78;;;2.45;;
33104;SDS011;19476;51.448;6.674;2023-04-03T01:43:58;4.65;;;2.22;;
33104;SDS011;19476;51.448;6.674;2023-04-03T01:46:24;4.90;;;2.30;;
33104;SDS011;19476;51.448;6.674;2023-04-03T01:48:50;4.28;;;2.10;;
33104;SDS011;19476;51.448;6.674;2023-04-03T01:51:16;3.67;;;1.85;;
33104;SDS011;19476;51.448;6.674;2023-04-03T01:53:42;4.53;;;2.08;;
33104;SDS011;19476;51.448;6.674;2023-04-03T01:56:08;3.92;;;1.75;;
33104;SDS011;19476;51.448;6.674;2023-04-03T01:58:34;3.40;;;1.80;;
33104;SDS011;19476;51.448;6.674;2023-04-03T02:01:00;4.13;;;1.85;;
33104;SDS011;19476;51.448;6.674;2023-04-03T02:03:26;3.97;;;1.73;;
33104;SDS011;19476;51.448;6.674;2023-04-03T02:05:52;4.13;;;2.03;;
33104;SDS011;19476;51.448;6.674;2023-04-03T02:08:18;3.60;;;1.52;;
33104;SDS011;19476;51.448;6.674;2023-04-03T02:10:44;5.28;;;1.83;;
33104;SDS011;19476;51.448;6.674;2023-04-03T02:13:12;2.17;;;1.40;;
33104;SDS011;19476;51.448;6.674;2023-04-03T02:15:41;2.83;;;1.35;;
33104;SDS011;19476;51.448;6.674;2023-04-03T02:18:07;2.97;;;1.65;;
33104;SDS011;19476;51.448;6.674;2023-04-03T02:20:33;4.07;;;1.38;;
33104;SDS011;19476;51.448;6.674;2023-04-03T02:22:59;3.50;;;1.13;;
33104;SDS011;19476;51.448;6.674;2023-04-03T02:25:25;3.25;;;1.45;;
33104;SDS011;19476;51.448;6.674;2023-04-03T02:27:51;3.30;;;1.30;;
33104;SDS011;19476;51.448;6.674;2023-04-03T02:30:17;2.88;;;1.30;;
33104;SDS011;19476;51.448;6.674;2023-04-03T02:32:43;3.63;;;1.30;;
33104;SDS011;19476;51.448;6.674;2023-04-03T02:35:09;3.45;;;1.50;;
33104;SDS011;19476;51.448;6.674;2023-04-03T02:37:36;3.38;;;1.13;;
33104;SDS011;19476;51.448;6.674;2023-04-03T02:40:02;3.22;;;1.20;;
33104;SDS011;19476;51.448;6.674;2023-04-03T02:42:29;2.67;;;1.10;;
33104;SDS011;19476;51.448;6.674;2023-04-03T02:44:55;2.50;;;1.00;;
33104;SDS011;19476;51.448;6.674;2023-04-03T02:47:21;3.45;;;0.93;;
33104;SDS011;19476;51.448;6.674;2023-04-03T02:49:47;4.93;;;1.23;;
33104;SDS011;19476;51.448;6.674;2023-04-03T02:52:13;1.75;;;0.88;;
33104;SDS011;19476;51.448;6.674;2023-04-03T02:54:39;4.78;;;1.40;;
33104;SDS011;19476;51.448;6.674;2023-04-03T02:57:05;2.75;;;1.10;;
33104;SDS011;19476;51.448;6.674;2023-04-03T02:59:34;2.58;;;1.02;;
33104;SDS011;19476;51.448;6.674;2023-04-03T03:02:01;4.18;;;1.23;;
33104;SDS011;19476;51.448;6.674;2023-04-03T03:04:27;2.80;;;1.05;;
33104;SDS011;19476;51.448;6.674;2023-04-03T03:06:52;3.28;;;1.20;;
33104;SDS011;19476;51.448;6.674;2023-04-03T03:09:18;2.85;;;0.90;;
33104;SDS011;19476;51.448;6.674;2023-04-03T03:11:44;3.72;;;1.17;;
33104;SDS011;19476;51.448;6.674;2023-04-03T03:14:10;3.63;;;1.60;;
33104;SDS011;19476;51.448;6.674;2023-04-03T03:16:36;3.45;;;1.02;;
33104;SDS011;19476;51.448;6.674;2023-04-03T03:19:02;2.17;;;1.17;;
33104;SDS011;19476;51.448;6.674;2023-04-03T03:21:27;4.13;;;0.98;;
33104;SDS011;19476;51.448;6.674;2023-04-03T03:23:53;4.15;;;1.10;;
33104;SDS011;19476;51.448;6.674;2023-04-03T03:26:19;4.43;;;1.52;;
33104;SDS011;19476;51.448;6.674;2023-04-03T03:28:45;2.05;;;0.85;;
33104;SDS011;19476;51.448;6.674;2023-04-03T03:31:11;4.22;;;1.10;;
33104;SDS011;19476;51.448;6.674;2023-04-03T03:33:37;2.95;;;1.10;;
33104;SDS011;19476;51.448;6.674;2023-04-03T03:36:03;3.10;;;0.90;;
33104;SDS011;19476;51.448;6.674;2023-04-03T03:38:29;2.38;;;0.82;;
33104;SDS011;19476;51.448;6.674;2023-04-03T03:40:55;3.45;;;0.98;;
33104;SDS011;19476;51.448;6.674;2023-04-03T03:43:21;2.65;;;0.80;;
33104;SDS011;19476;51.448;6.674;2023-04-03T03:45:53;4.57;;;0.90;;
33104;SDS011;19476;51.448;6.674;2023-04-03T03:48:20;3.60;;;1.30;;
33104;SDS011;19476;51.448;6.674;2023-04-03T03:50:47;4.95;;;1.08;;
33104;SDS011;19476;51.448;6.674;2023-04-03T03:53:13;4.45;;;0.93;;
33104;SDS011;19476;51.448;6.674;2023-04-03T03:55:39;3.25;;;0.77;;
33104;SDS011;19476;51.448;6.674;2023-04-03T03:58:05;3.20;;;1.13;;
33104;SDS011;19476;51.448;6.674;2023-04-03T04:00:32;2.60;;;0.80;;
33104;SDS011;19476;51.448;6.674;2023-04-03T04:02:58;3.55;;;1.00;;
33104;SDS011;19476;51.448;6.674;2023-04-03T04:05:23;3.90;;;1.10;;
33104;SDS011;19476;51.448;6.674;2023-04-03T04:07:49;2.70;;;0.88;;
33104;SDS011;19476;51.448;6.674;2023-04-03T04:10:16;3.42;;;1.15;;
33104;SDS011;19476;51.448;6.674;2023-04-03T04:12:42;5.55;;;1.35;;
33104;SDS011;19476;51.448;6.674;2023-04-03T04:15:07;4.15;;;1.58;;
33104;SDS011;19476;51.448;6.674;2023-04-03T04:17:34;3.38;;;1.13;;
33104;SDS011;19476;51.448;6.674;2023-04-03T04:20:00;2.70;;;1.00;;
33104;SDS011;19476;51.448;6.674;2023-04-03T04:22:27;2.28;;;1.00;;
33104;SDS011;19476;51.448;6.674;2023-04-03T04:24:53;2.97;;;0.90;;
33104;SDS011;19476;51.448;6.674;2023-04-03T04:27:19;4.55;;;1.48;;
33104;SDS011;19476;51.448;6.674;2023-04-03T04:29:45;4.03;;;1.30;;
33104;SDS011;19476;51.448;6.674;2023-04-03T04:32:10;2.97;;;0.90;;
33104;SDS011;19476;51.448;6.674;2023-04-03T04:34:36;4.40;;;1.00;;
33104;SDS011;19476;51.448;6.674;2023-04-03T04:37:02;2.47;;;1.00;;
33104;SDS011;19476;51.448;6.674;2023-04-03T04:39:28;3.08;;;1.00;;
33104;SDS011;19476;51.448;6.674;2023-04-03T04:41:53;3.42;;;0.90;;
33104;SDS011;19476;51.448;6.674;2023-04-03T04:44:19;2.13;;;1.00;;
33104;SDS011;19476;51.448;6.674;2023-04-03T04:46:45;3.60;;;1.08;;
33104;SDS011;19476;51.448;6.674;2023-04-03T04:49:11;3.58;;;0.95;;
33104;SDS011;19476;51.448;6.674;2023-04-03T04:51:37;1.77;;;0.75;;
33104;SDS011;19476;51.448;6.674;2023-04-03T04:54:02;5.07;;;1.55;;
33104;SDS011;19476;51.448;6.674;2023-04-03T04:56:28;4.32;;;1.27;;
33104;SDS011;19476;51.448;6.674;2023-04-03T04:58:54;2.78;;;0.98;;
33104;SDS011;19476;51.448;6.674;2023-04-03T05:01:20;2.97;;;1.02;;
33104;SDS011;19476;51.448;6.674;2023-04-03T05:03:46;2.92;;;1.20;;
33104;SDS011;19476;51.448;6.674;2023-04-03T05:06:13;3.45;;;1.48;;
33104;SDS011;19476;51.448;6.674;2023-04-03T05:08:38;4.10;;;0.90;;
33104;SDS011;19476;51.448;6.674;2023-04-03T05:11:04;6.32;;;0.90;;
33104;SDS011;19476;51.448;6.674;2023-04-03T05:13:30;2.97;;;1.02;;
33104;SDS011;19476;51.448;6.674;2023-04-03T05:15:56;3.30;;;1.30;;
33104;SDS011;19476;51.448;6.674;2023-04-03T05:18:22;2.80;;;0.93;;
33104;SDS011;19476;51.448;6.674;2023-04-03T05:20:48;4.97;;;1.40;;
33104;SDS011;19476;51.448;6.674;2023-04-03T05:23:15;4.55;;;1.10;;
33104;SDS011;19476;51.448;6.674;2023-04-03T05:25:41;4.50;;;1.20;;
33104;SDS011;19476;51.448;6.674;2023-04-03T05:28:08;3.60;;;1.10;;
33104;SDS011;19476;51.448;6.674;2023-04-03T05:30:35;4.57;;;1.08;;
33104;SDS011;19476;51.448;6.674;2023-04-03T05:33:01;2.47;;;0.95;;
33104;SDS011;19476;51.448;6.674;2023-04-03T05:35:26;3.83;;;1.17;;
33104;SDS011;19476;51.448;6.674;2023-04-03T05:37:52;2.80;;;0.95;;
33104;SDS011;19476;51.448;6.674;2023-04-03T05:40:18;2.70;;;1.00;;
33104;SDS011;19476;51.448;6.674;2023-04-03T05:42:44;4.20;;;1.25;;
33104;SDS011;19476;51.448;6.674;2023-04-03T05:45:10;4.07;;;1.00;;
33104;SDS011;19476;51.448;6.674;2023-04-03T05:47:36;4.78;;;1.35;;
33104;SDS011;19476;51.448;6.674;2023-04-03T05:50:02;4.63;;;1.20;;
33104;SDS011;19476;51.448;6.674;2023-04-03T05:52:29;3.13;;;0.98;;
33104;SDS011;19476;51.448;6.674;2023-04-03T05:54:56;4.47;;;1.38;;
33104;SDS011;19476;51.448;6.674;2023-04-03T05:57:22;4.13;;;1.17;;
33104;SDS011;19476;51.448;6.674;2023-04-03T05:59:48;3.72;;;1.38;;
33104;SDS011;19476;51.448;6.674;2023-04-03T06:02:16;4.45;;;0.85;;
33104;SDS011;19476;51.448;6.674;2023-04-03T06:04:43;4.45;;;1.23;;
33104;SDS011;19476;51.448;6.674;2023-04-03T06:07:13;5.63;;;1.30;;
33104;SDS011;19476;51.448;6.674;2023-04-03T06:09:41;4.50;;;1.25;;
33104;SDS011;19476;51.448;6.674;2023-04-03T06:12:08;2.38;;;1.33;;
33104;SDS011;19476;51.448;6.674;2023-04-03T06:14:34;4.70;;;1.15;;
33104;SDS011;19476;51.448;6.674;2023-04-03T06:17:01;4.20;;;1.38;;
33104;SDS011;19476;51.448;6.674;2023-04-03T06:19:27;2.50;;;1.13;;
33104;SDS011;19476;51.448;6.674;2023-04-03T06:21:53;5.00;;;1.48;;
33104;SDS011;19476;51.448;6.674;2023-04-03T06:24:19;3.60;;;1.20;;
33104;SDS011;19476;51.448;6.674;2023-04-03T06:26:46;3.53;;;1.13;;
33104;SDS011;19476;51.448;6.674;2023-04-03T06:29:18;3.85;;;1.35;;
33104;SDS011;19476;51.448;6.674;2023-04-03T06:31:44;5.63;;;1.25;;
33104;SDS011;19476;51.448;6.674;2023-04-03T06:34:11;4.22;;;1.30;;
33104;SDS011;19476;51.448;6.674;2023-04-03T06:36:37;4.15;;;1.45;;
33104;SDS011;19476;51.448;6.674;2023-04-03T06:39:04;4.45;;;1.85;;
33104;SDS011;19476;51.448;6.674;2023-04-03T06:41:30;9.88;;;4.18;;
33104;SDS011;19476;51.448;6.674;2023-04-03T06:43:56;8.13;;;2.78;;
33104;SDS011;19476;51.448;6.674;2023-04-03T06:46:23;8.70;;;3.65;;
33104;SDS011;19476;51.448;6.674;2023-04-03T06:48:50;6.90;;;3.17;;
33104;SDS011;19476;51.448;6.674;2023-04-03T06:51:18;9.00;;;3.30;;
33104;SDS011;19476;51.448;6.674;2023-04-03T06:53:49;7.53;;;2.78;;
33104;SDS011;19476;51.448;6.674;2023-04-03T06:56:17;6.30;;;2.05;;
33104;SDS011;19476;51.448;6.674;2023-04-03T06:58:43;5.80;;;1.90;;
33104;SDS011;19476;51.448;6.674;2023-04-03T07:01:10;5.40;;;1.90;;
33104;SDS011;19476;51.448;6.674;2023-04-03T07:03:37;7.28;;;2.17;;
33104;SDS011;19476;51.448;6.674;2023-04-03T07:06:04;4.88;;;1.85;;
33104;SDS011;19476;51.448;6.674;2023-04-03T07:08:30;7.32;;;1.95;;
33104;SDS011;19476;51.448;6.674;2023-04-03T07:10:57;4.22;;;1.65;;
33104;SDS011;19476;51.448;6.674;2023-04-03T07:13:23;5.50;;;1.70;;
33104;SDS011;19476;51.448;6.674;2023-04-03T07:15:48;6.07;;;2.10;;
33104;SDS011;19476;51.448;6.674;2023-04-03T07:18:15;4.68;;;1.55;;
33104;SDS011;19476;51.448;6.674;2023-04-03T07:20:42;3.60;;;1.40;;
33104;SDS011;19476;51.448;6.674;2023-04-03T07:23:08;5.03;;;1.60;;
33104;SDS011;19476;51.448;6.674;2023-04-03T07:25:35;4.18;;;1.58;;
33104;SDS011;19476;51.448;6.674;2023-04-03T07:28:01;4.63;;;1.52;;
33104;SDS011;19476;51.448;6.674;2023-04-03T07:30:27;5.13;;;1.67;;
33104;SDS011;19476;51.448;6.674;2023-04-03T07:32:53;5.15;;;1.92;;
33104;SDS011;19476;51.448;6.674;2023-04-03T07:35:18;4.53;;;1.73;;
33104;SDS011;19476;51.448;6.674;2023-04-03T07:37:44;6.22;;;1.70;;
33104;SDS011;19476;51.448;6.674;2023-04-03T07:40:10;4.43;;;1.50;;
33104;SDS011;19476;51.448;6.674;2023-04-03T07:42:36;3.83;;;1.73;;
33104;SDS011;19476;51.448;6.674;2023-04-03T07:45:04;3.10;;;1.13;;
33104;SDS011;19476;51.448;6.674;2023-04-03T07:47:31;6.15;;;1.52;;
33104;SDS011;19476;51.448;6.674;2023-04-03T07:49:57;3.92;;;1.00;;
33104;SDS011;19476;51.448;6.674;2023-04-03T07:52:23;4.78;;;1.40;;
33104;SDS011;19476;51.448;6.674;2023-04-03T07:54:49;5.13;;;1.30;;
33104;SDS011;19476;51.448;6.674;2023-04-03T07:57:15;4.25;;;1.60;;
33104;SDS011;19476;51.448;6.674;2023-04-03T07:59:41;4.20;;;1.20;;
33104;SDS011;19476;51.448;6.674;2023-04-03T08:02:11;3.45;;;0.98;;
33104;SDS011;19476;51.448;6.674;2023-04-03T08:04:37;4.82;;;1.17;;
33104;SDS011;19476;51.448;6.674;2023-04-03T08:07:03;3.22;;;1.17;;
33104;SDS011;19476;51.448;6.674;2023-04-03T08:09:29;3.35;;;1.20;;
33104;SDS011;19476;51.448;6.674;2023-04-03T08:11:56;2.75;;;0.90;;
33104;SDS011;19476;51.448;6.674;2023-04-03T08:14:23;4.93;;;1.42;;
33104;SDS011;19476;51.448;6.674;2023-04-03T08:16:49;1.98;;;0.90;;
33104;SDS011;19476;51.448;6.674;2023-04-03T08:19:15;3.50;;;1.15;;
33104;SDS011;19476;51.448;6.674;2023-04-03T08:21:43;4.05;;;1.35;;
33104;SDS011;19476;51.448;6.674;2023-04-03T08:24:10;3.30;;;1.30;;
33104;SDS011;19476;51.448;6.674;2023-04-03T08:26:36;4.10;;;0.90;;
33104;SDS011;19476;51.448;6.674;2023-04-03T08:29:02;3.72;;;1.08;;
33104;SDS011;19476;51.448;6.674;2023-04-03T08:31:29;3.85;;;1.02;;
33104;SDS011;19476;51.448;6.674;2023-04-03T08:33:56;2.85;;;0.82;;
33104;SDS011;19476;51.448;6.674;2023-04-03T08:36:23;2.97;;;0.80;;
33104;SDS011;19476;51.448;6.674;2023-04-03T08:38:52;2.33;;;1.10;;
33104;SDS011;19476;51.448;6.674;2023-04-03T08:52:01;2.60;;;0.90;;
33104;SDS011;19476;51.448;6.674;2023-04-03T08:54:54;2.47;;;0.80;;
33104;SDS011;19476;51.448;6.674;2023-04-03T08:57:30;4.00;;;1.00;;
33104;SDS011;19476;51.448;6.674;2023-04-03T09:00:16;3.20;;;0.98;;
33104;SDS011;19476;51.448;6.674;2023-04-03T09:02:48;1.55;;;0.70;;
33104;SDS011;19476;51.448;6.674;2023-04-03T09:05:17;1.92;;;0.88;;
33104;SDS011;19476;51.448;6.674;2023-04-03T09:07:46;3.80;;;0.88;;
33104;SDS011;19476;51.448;6.674;2023-04-03T09:10:19;2.40;;;0.60;;
33104;SDS011;19476;51.448;6.674;2023-04-03T09:13:43;1.73;;;0.63;;
33104;SDS011;19476;51.448;6.674;2023-04-03T09:16:20;2.42;;;0.90;;
33104;SDS011;19476;51.448;6.674;2023-04-03T09:19:07;1.88;;;0.90;;
33104;SDS011;19476;51.448;6.674;2023-04-03T09:21:40;2.53;;;0.80;;
33104;SDS011;19476;51.448;6.674;2023-04-03T09:24:07;2.95;;;0.65;;
33104;SDS011;19476;51.448;6.674;2023-04-03T09:26:41;2.10;;;0.80;;
33104;SDS011;19476;51.448;6.674;2023-04-03T09:29:20;2.67;;;0.80;;
33104;SDS011;19476;51.448;6.674;2023-04-03T09:31:49;2.88;;;0.90;;
33104;SDS011;19476;51.448;6.674;2023-04-03T09:34:22;6.53;;;0.75;;
33104;SDS011;19476;51.448;6.674;2023-04-03T09:36:52;1.52;;;0.60;;
33104;SDS011;19476;51.448;6.674;2023-04-03T09:39:27;2.00;;;0.70;;
33104;SDS011;19476;51.448;6.674;2023-04-03T09:41:58;2.35;;;1.00;;
33104;SDS011;19476;51.448;6.674;2023-04-03T09:44:26;2.08;;;0.57;;
33104;SDS011;19476;51.448;6.674;2023-04-03T09:47:17;3.38;;;0.70;;
33104;SDS011;19476;51.448;6.674;2023-04-03T09:49:43;3.97;;;0.80;;
33104;SDS011;19476;51.448;6.674;2023-04-03T09:52:24;1.70;;;0.57;;
33104;SDS011;19476;51.448;6.674;2023-04-03T09:54:51;1.77;;;0.60;;
33104;SDS011;19476;51.448;6.674;2023-04-03T09:57:17;1.30;;;0.40;;
33104;SDS011;19476;51.448;6.674;2023-04-03T09:59:47;2.10;;;0.60;;
33104;SDS011;19476;51.448;6.674;2023-04-03T10:02:34;2.72;;;0.60;;
33104;SDS011;19476;51.448;6.674;2023-04-03T10:07:52;2.67;;;0.47;;
33104;SDS011;19476;51.448;6.674;2023-04-03T10:10:45;1.02;;;0.50;;
33104;SDS011;19476;51.448;6.674;2023-04-03T10:15:45;2.33;;;0.70;;
33104;SDS011;19476;51.448;6.674;2023-04-03T10:20:48;3.30;;;0.90;;
33104;SDS011;19476;51.448;6.674;2023-04-03T10:28:39;1.95;;;0.38;;
33104;SDS011;19476;51.448;6.674;2023-04-03T10:39:48;1.30;;;0.30;;
33104;SDS011;19476;51.448;6.674;2023-04-03T10:45:24;1.20;;;0.45;;
33104;SDS011;19476;51.448;6.674;2023-04-03T10:48:07;1.45;;;0.50;;
33104;SDS011;19476;51.448;6.674;2023-04-03T10:56:35;1.35;;;0.70;;
33104;SDS011;19476;51.448;6.674;2023-04-03T11:01:50;1.52;;;0.40;;
33104;SDS011;19476;51.448;6.674;2023-04-03T11:04:37;1.60;;;0.57;;
33104;SDS011;19476;51.448;6.674;2023-04-03T11:07:15;2.40;;;0.70;;
33104;SDS011;19476;51.448;6.674;2023-04-03T11:09:44;1.80;;;0.43;;
33104;SDS011;19476;51.448;6.674;2023-04-03T11:12:13;1.17;;;0.45;;
33104;SDS011;19476;51.448;6.674;2023-04-03T11:14:52;3.38;;;0.75;;
33104;SDS011;19476;51.448;6.674;2023-04-03T11:17:24;2.65;;;0.75;;
33104;SDS011;19476;51.448;6.674;2023-04-03T11:20:01;1.02;;;0.43;;
33104;SDS011;19476;51.448;6.674;2023-04-03T11:27:56;1.88;;;0.75;;
33104;SDS011;19476;51.448;6.674;2023-04-03T11:35:43;3.95;;;1.10;;
33104;SDS011;19476;51.448;6.674;2023-04-03T11:38:21;3.40;;;1.00;;
33104;SDS011;19476;51.448;6.674;2023-04-03T11:40:54;1.40;;;0.70;;
33104;SDS011;19476;51.448;6.674;2023-04-03T11:43:28;1.52;;;0.50;;
33104;SDS011;19476;51.448;6.674;2023-04-03T11:46:03;3.35;;;0.95;;
33104;SDS011;19476;51.448;6.674;2023-04-03T11:53:38;2.13;;;0.80;;
33104;SDS011;19476;51.448;6.674;2023-04-03T12:04:20;1.50;;;0.60;;
33104;SDS011;19476;51.448;6.674;2023-04-03T12:09:34;2.13;;;0.90;;
33104;SDS011;19476;51.448;6.674;2023-04-03T12:12:37;2.70;;;0.70;;
33104;SDS011;19476;51.448;6.674;2023-04-03T12:15:41;2.92;;;0.80;;
33104;SDS011;19476;51.448;6.674;2023-04-03T12:18:53;1.90;;;0.75;;
33104;SDS011;19476;51.448;6.674;2023-04-03T12:26:46;2.83;;;0.60;;
33104;SDS011;19476;51.448;6.674;2023-04-03T12:45:26;2.58;;;0.60;;
33104;SDS011;19476;51.448;6.674;2023-04-03T12:47:53;1.60;;;0.50;;
33104;SDS011;19476;51.448;6.674;2023-04-03T12:50:30;1.75;;;0.60;;
33104;SDS011;19476;51.448;6.674;2023-04-03T12:53:04;2.35;;;0.50;;
33104;SDS011;19476;51.448;6.674;2023-04-03T12:55:32;2.42;;;0.75;;
33104;SDS011;19476;51.448;6.674;2023-04-03T12:58:21;2.78;;;0.90;;
33104;SDS011;19476;51.448;6.674;2023-04-03T13:00:57;4.07;;;0.83;;
33104;SDS011;19476;51.448;6.674;2023-04-03T13:03:26;1.40;;;0.70;;
33104;SDS011;19476;51.448;6.674;2023-04-03T13:06:02;1.88;;;0.80;;
33104;SDS011;19476;51.448;6.674;2023-04-03T13:08:29;2.58;;;0.70;;
33104;SDS011;19476;51.448;6.674;2023-04-03T13:11:02;2.50;;;0.65;;
33104;SDS011;19476;51.448;6.674;2023-04-03T13:13:32;2.67;;;0.60;;
33104;SDS011;19476;51.448;6.674;2023-04-03T13:15:58;1.25;;;0.63;;
33104;SDS011;19476;51.448;6.674;2023-04-03T13:18:31;1.38;;;0.60;;
33104;SDS011;19476;51.448;6.674;2023-04-03T13:21:01;2.58;;;0.75;;
33104;SDS011;19476;51.448;6.674;2023-04-03T13:23:34;2.15;;;0.57;;
33104;SDS011;19476;51.448;6.674;2023-04-03T13:26:04;3.13;;;0.75;;
33104;SDS011;19476;51.448;6.674;2023-04-03T13:28:31;2.22;;;0.98;;
33104;SDS011;19476;51.448;6.674;2023-04-03T13:33:31;2.20;;;0.80;;
33104;SDS011;19476;51.448;6.674;2023-04-03T13:39:07;1.70;;;0.70;;
33104;SDS011;19476;51.448;6.674;2023-04-03T13:41:50;2.38;;;0.77;;
33104;SDS011;19476;51.448;6.674;2023-04-03T13:47:21;2.72;;;0.70;;
33104;SDS011;19476;51.448;6.674;2023-04-03T13:50:03;1.38;;;0.55;;
33104;SDS011;19476;51.448;6.674;2023-04-03T13:52:43;1.58;;;0.70;;
33104;SDS011;19476;51.448;6.674;2023-04-03T13:55:22;2.63;;;1.10;;
33104;SDS011;19476;51.448;6.674;2023-04-03T13:57:54;1.90;;;0.55;;
33104;SDS011;19476;51.448;6.674;2023-04-03T14:00:26;3.47;;;0.75;;
33104;SDS011;19476;51.448;6.674;2023-04-03T14:03:17;1.83;;;0.73;;
33104;SDS011;19476;51.448;6.674;2023-04-03T14:05:44;3.47;;;0.60;;
33104;SDS011;19476;51.448;6.674;2023-04-03T14:08:10;2.15;;;0.60;;
33104;SDS011;19476;51.448;6.674;2023-04-03T14:10:36;2.20;;;0.57;;
33104;SDS011;19476;51.448;6.674;2023-04-03T14:13:02;2.00;;;0.65;;
33104;SDS011;19476;51.448;6.674;2023-04-03T14:15:29;1.75;;;0.68;;
33104;SDS011;19476;51.448;6.674;2023-04-03T14:17:56;1.55;;;0.70;;
33104;SDS011;19476;51.448;6.674;2023-04-03T14:20:23;1.83;;;0.82;;
33104;SDS011;19476;51.448;6.674;2023-04-03T14:22:51;2.00;;;0.60;;
33104;SDS011;19476;51.448;6.674;2023-04-03T14:25:19;1.77;;;0.73;;
33104;SDS011;19476;51.448;6.674;2023-04-03T14:27:46;1.88;;;0.60;;
33104;SDS011;19476;51.448;6.674;2023-04-03T14:30:19;2.20;;;0.70;;
33104;SDS011;19476;51.448;6.674;2023-04-03T14:32:48;2.15;;;0.55;;
33104;SDS011;19476;51.448;6.674;2023-04-03T14:35:14;1.85;;;0.70;;
33104;SDS011;19476;51.448;6.674;2023-04-03T14:37:42;1.90;;;0.70;;
33104;SDS011;19476;51.448;6.674;2023-04-03T14:40:11;2.15;;;0.70;;
33104;SDS011;19476;51.448;6.674;2023-04-03T14:42:39;1.90;;;0.77;;
33104;SDS011;19476;51.448;6.674;2023-04-03T14:45:07;1.40;;;0.70;;
33104;SDS011;19476;51.448;6.674;2023-04-03T14:47:37;4.15;;;0.77;;
33104;SDS011;19476;51.448;6.674;2023-04-03T14:50:16;1.10;;;0.65;;
33104;SDS011;19476;51.448;6.674;2023-04-03T14:52:46;3.28;;;0.90;;
33104;SDS011;19476;51.448;6.674;2023-04-03T14:55:14;1.33;;;0.63;;
33104;SDS011;19476;51.448;6.674;2023-04-03T14:57:41;2.72;;;0.90;;
33104;SDS011;19476;51.448;6.674;2023-04-03T15:00:12;3.22;;;1.23;;
33104;SDS011;19476;51.448;6.674;2023-04-03T15:02:40;1.70;;;0.60;;
33104;SDS011;19476;51.448;6.674;2023-04-03T15:05:07;3.58;;;1.00;;
33104;SDS011;19476;51.448;6.674;2023-04-03T15:07:35;3.03;;;0.80;;
33104;SDS011;19476;51.448;6.674;2023-04-03T15:12:46;2.50;;;0.80;;
33104;SDS011;19476;51.448;6.674;2023-04-03T15:15:13;1.92;;;0.70;;
33104;SDS011;19476;51.448;6.674;2023-04-03T15:17:40;1.73;;;0.90;;
33104;SDS011;19476;51.448;6.674;2023-04-03T15:22:59;0.95;;;0.60;;
33104;SDS011;19476;51.448;6.674;2023-04-03T15:25:29;1.88;;;0.70;;
33104;SDS011;19476;51.448;6.674;2023-04-03T15:27:56;1.52;;;0.50;;
33104;SDS011;19476;51.448;6.674;2023-04-03T15:30:23;2.03;;;0.60;;
33104;SDS011;19476;51.448;6.674;2023-04-03T15:32:49;2.80;;;0.80;;
33104;SDS011;19476;51.448;6.674;2023-04-03T15:35:15;2.63;;;0.70;;
33104;SDS011;19476;51.448;6.674;2023-04-03T15:37:41;1.80;;;0.68;;
33104;SDS011;19476;51.448;6.674;2023-04-03T15:40:08;2.08;;;0.60;;
33104;SDS011;19476;51.448;6.674;2023-04-03T15:42:34;2.10;;;0.70;;
33104;SDS011;19476;51.448;6.674;2023-04-03T15:45:00;2.83;;;1.58;;
33104;SDS011;19476;51.448;6.674;2023-04-03T15:47:26;1.25;;;0.80;;
33104;SDS011;19476;51.448;6.674;2023-04-03T15:49:53;3.08;;;1.00;;
33104;SDS011;19476;51.448;6.674;2023-04-03T15:52:20;0.82;;;0.52;;
33104;SDS011;19476;51.448;6.674;2023-04-03T15:54:45;3.00;;;0.77;;
33104;SDS011;19476;51.448;6.674;2023-04-03T15:57:11;1.88;;;0.90;;
33104;SDS011;19476;51.448;6.674;2023-04-03T15:59:37;1.95;;;0.60;;
33104;SDS011;19476;51.448;6.674;2023-04-03T16:02:03;2.45;;;0.88;;
33104;SDS011;19476;51.448;6.674;2023-04-03T16:04:32;3.33;;;1.13;;
33104;SDS011;19476;51.448;6.674;2023-04-03T16:07:01;2.05;;;0.60;;
33104;SDS011;19476;51.448;6.674;2023-04-03T16:09:28;2.28;;;0.80;;
33104;SDS011;19476;51.448;6.674;2023-04-03T16:11:54;1.60;;;0.68;;
33104;SDS011;19476;51.448;6.674;2023-04-03T16:14:19;2.30;;;0.70;;
33104;SDS011;19476;51.448;6.674;2023-04-03T16:16:45;1.83;;;0.70;;
33104;SDS011;19476;51.448;6.674;2023-04-03T16:19:11;1.77;;;0.80;;
33104;SDS011;19476;51.448;6.674;2023-04-03T16:21:38;2.60;;;0.93;;
33104;SDS011;19476;51.448;6.674;2023-04-03T16:24:04;3.90;;;0.80;;
33104;SDS011;19476;51.448;6.674;2023-04-03T16:26:30;1.20;;;0.73;;
33104;SDS011;19476;51.448;6.674;2023-04-03T16:28:56;2.45;;;0.80;;
33104;SDS011;19476;51.448;6.674;2023-04-03T16:31:22;3.17;;;1.05;;
33104;SDS011;19476;51.448;6.674;2023-04-03T16:33:50;1.95;;;0.77;;
33104;SDS011;19476;51.448;6.674;2023-04-03T16:36:15;1.75;;;0.80;;
33104;SDS011;19476;51.448;6.674;2023-04-03T16:38:41;2.88;;;0.93;;
33104;SDS011;19476;51.448;6.674;2023-04-03T16:41:07;3.67;;;1.17;;
33104;SDS011;19476;51.448;6.674;2023-04-03T16:43:33;2.47;;;1.10;;
33104;SDS011;19476;51.448;6.674;2023-04-03T16:46:00;2.33;;;1.00;;
33104;SDS011;19476;51.448;6.674;2023-04-03T16:48:27;3.15;;;0.90;;
33104;SDS011;19476;51.448;6.674;2023-04-03T16:50:53;2.45;;;1.13;;